createdAt,value
2018-04-23T00:00:02.025Z,74.00
2018-04-23T00:01:29.351Z,74.03
2018-04-23T00:02:56.799Z,73.71
2018-04-23T00:04:24.193Z,73.58
2018-04-23T00:05:47.526Z,73.76
2018-04-23T00:07:19.049Z,73.84
2018-04-23T00:08:46.400Z,73.90
2018-04-23T00:10:09.532Z,74.31
2018-04-23T00:11:36.948Z,74.40
2018-04-23T00:13:08.452Z,74.56
2018-04-23T00:14:35.536Z,74.47
2018-04-23T00:15:58.725Z,74.46
2018-04-23T00:17:26.235Z,74.39
2018-04-23T00:18:53.668Z,74.36
2018-04-23T00:20:21.086Z,74.17
2018-04-23T00:21:52.188Z,74.23
2018-04-23T00:23:15.473Z,74.03
2018-04-23T00:24:42.688Z,74.29
2018-04-23T00:26:09.649Z,74.35
2018-04-23T00:27:37.123Z,74.63
2018-04-23T00:29:08.553Z,74.60
2018-04-23T00:30:35.953Z,74.73
2018-04-23T00:31:59.250Z,74.98
2018-04-23T00:33:30.779Z,74.98
2018-04-23T00:34:54.112Z,74.75
2018-04-23T00:36:25.352Z,75.02
2018-04-23T00:37:48.748Z,74.86
2018-04-23T00:39:16.011Z,75.22
2018-04-23T00:40:43.483Z,74.76
2018-04-23T00:42:10.684Z,74.69
2018-04-23T00:43:46.402Z,74.80
2018-04-23T00:45:05.425Z,75.27
2018-04-23T00:46:36.893Z,75.01
2018-04-23T00:48:00.468Z,74.83
2018-04-23T00:49:32.025Z,74.75
2018-04-23T00:50:55.510Z,75.91
2018-04-23T00:52:22.758Z,76.61
2018-04-23T00:53:50.127Z,77.05
2018-04-23T00:55:17.435Z,77.46
2018-04-23T00:56:44.867Z,77.87
2018-04-23T00:58:16.139Z,78.29
2018-04-23T00:59:39.676Z,78.36
2018-04-23T01:01:07.091Z,77.71
2018-04-23T01:02:38.418Z,77.39
2018-04-23T01:04:01.940Z,77.11
2018-04-23T01:05:29.389Z,78.13
2018-04-23T01:06:56.825Z,78.77
2018-04-23T01:08:28.268Z,78.10
2018-04-23T01:09:55.726Z,77.81
2018-04-23T01:11:23.278Z,77.79
2018-04-23T01:12:50.402Z,77.79
2018-04-23T01:14:17.769Z,77.73
2018-04-23T01:15:45.328Z,77.62
2018-04-23T01:17:12.809Z,77.82
2018-04-23T01:18:36.072Z,77.42
2018-04-23T01:20:03.276Z,77.10
2018-04-23T01:21:34.558Z,76.75
2018-04-23T01:22:58.114Z,76.80
2018-04-23T01:24:29.528Z,77.10
2018-04-23T01:25:52.947Z,77.01
2018-04-23T01:27:20.507Z,76.98
2018-04-23T01:28:51.657Z,77.27
2018-04-23T01:30:15.066Z,77.25
2018-04-23T01:31:46.443Z,77.42
2018-04-23T01:33:09.835Z,77.37
2018-04-23T01:34:37.290Z,77.66
2018-04-23T01:36:04.678Z,77.92
2018-04-23T01:37:32.117Z,77.97
2018-04-23T01:39:03.459Z,78.02
2018-04-23T01:40:26.807Z,78.26
2018-04-23T01:41:58.165Z,78.09
2018-04-23T01:43:21.584Z,78.38
2018-04-23T01:44:49.044Z,78.32
2018-04-23T01:46:16.520Z,78.43
2018-04-23T01:47:47.970Z,78.50
2018-04-23T01:49:15.452Z,78.50
2018-04-23T01:50:38.553Z,78.52
2018-04-23T01:52:05.963Z,78.68
2018-04-23T01:53:33.323Z,78.98
2018-04-23T01:55:04.716Z,78.85
2018-04-23T01:56:31.892Z,78.79
2018-04-23T01:57:55.521Z,78.66
2018-04-23T01:59:22.857Z,78.92
2018-04-23T02:00:54.429Z,79.33
2018-04-23T02:02:21.780Z,80.11
2018-04-23T02:03:49.014Z,80.28
2018-04-23T02:05:12.305Z,79.75
2018-04-23T02:06:43.491Z,80.33
2018-04-23T02:08:06.732Z,80.89
2018-04-23T02:09:34.151Z,79.98
2018-04-23T02:11:01.509Z,80.69
2018-04-23T02:12:32.730Z,80.25
2018-04-23T02:13:56.015Z,80.45
2018-04-23T02:15:23.186Z,80.45
2018-04-23T02:16:50.444Z,80.15
2018-04-23T02:18:21.863Z,81.08
2018-04-23T02:19:49.353Z,81.47
2018-04-23T02:21:12.580Z,81.38
2018-04-23T02:22:43.726Z,81.11
2018-04-23T02:24:07.296Z,81.47
2018-04-23T02:25:34.697Z,81.47
2018-04-23T02:27:02.176Z,81.64
2018-04-23T02:28:29.552Z,81.78
2018-04-23T02:30:00.982Z,82.00
2018-04-23T02:31:24.547Z,82.04
2018-04-23T02:32:51.943Z,81.75
2018-04-23T02:34:23.379Z,81.75
2018-04-23T02:35:50.781Z,81.75
2018-04-23T02:37:18.086Z,81.62
2018-04-23T02:38:45.366Z,81.96
2018-04-23T02:40:08.605Z,82.04
2018-04-23T02:41:40.105Z,82.36
2018-04-23T02:43:03.701Z,82.10
2018-04-23T02:44:34.954Z,82.38
2018-04-23T02:45:58.416Z,82.30
2018-04-23T02:47:25.651Z,82.24
2018-04-23T02:48:57.135Z,82.31
2018-04-23T02:50:24.589Z,82.20
2018-04-23T02:51:51.872Z,82.22
2018-04-23T02:53:15.255Z,82.08
2018-04-23T02:54:46.696Z,82.13
2018-04-23T02:56:10.110Z,82.39
2018-04-23T02:57:37.433Z,82.39
2018-04-23T02:59:04.984Z,82.53
2018-04-23T03:00:36.394Z,82.58
2018-04-23T03:01:59.662Z,82.76
2018-04-23T03:03:27.066Z,82.80
2018-04-23T03:04:58.419Z,82.69
2018-04-23T03:06:21.812Z,82.83
2018-04-23T03:07:49.179Z,83.20
2018-04-23T03:09:16.403Z,82.98
2018-04-23T03:10:43.716Z,83.38
2018-04-23T03:12:11.061Z,83.28
2018-04-23T03:13:38.317Z,82.97
2018-04-23T03:15:09.246Z,83.16
2018-04-23T03:16:32.218Z,83.52
2018-04-23T03:18:03.572Z,83.12
2018-04-23T03:19:31.020Z,83.47
2018-04-23T03:20:54.099Z,82.84
2018-04-23T03:22:25.511Z,83.15
2018-04-23T03:23:52.561Z,82.81
2018-04-23T03:25:16.023Z,83.34
2018-04-23T03:26:43.317Z,83.10
2018-04-23T03:28:10.849Z,83.10
2018-04-23T03:29:38.157Z,83.36
2018-04-23T03:31:05.740Z,82.82
2018-04-23T03:32:33.294Z,83.43
2018-04-23T03:34:04.324Z,83.46
2018-04-23T03:35:27.529Z,83.45
2018-04-23T03:36:54.752Z,83.66
2018-04-23T03:38:21.985Z,83.92
2018-04-23T03:39:49.298Z,84.32
2018-04-23T03:41:16.626Z,84.09
2018-04-23T03:42:44.037Z,84.19
2018-04-23T03:44:11.101Z,84.16
2018-04-23T03:45:42.533Z,83.73
2018-04-23T03:47:06.187Z,84.09
2018-04-23T03:48:33.579Z,83.74
2018-04-23T03:50:01.121Z,84.13
2018-04-23T03:51:31.844Z,84.32
2018-04-23T03:52:55.238Z,84.44
2018-04-23T03:54:26.801Z,84.33
2018-04-23T03:55:53.976Z,84.29
2018-04-23T03:57:17.168Z,84.34
2018-04-23T03:58:44.675Z,84.25
2018-04-23T04:00:11.947Z,84.84
2018-04-23T04:01:39.442Z,84.60
2018-04-23T04:03:10.628Z,84.72
2018-04-23T04:04:34.031Z,85.11
2018-04-23T04:06:01.492Z,84.77
2018-04-23T04:07:28.988Z,84.68
2018-04-23T04:08:57.397Z,85.05
2018-04-23T04:10:23.894Z,84.66
2018-04-23T04:11:55.366Z,85.08
2018-04-23T04:13:18.838Z,84.96
2018-04-23T04:16:13.206Z,85.26
2018-04-23T04:17:40.324Z,85.29
2018-04-23T04:19:07.721Z,85.31
2018-04-23T04:20:35.285Z,85.67
2018-04-23T04:22:06.641Z,85.56
2018-04-23T04:23:33.646Z,85.85
2018-04-23T04:25:01.096Z,85.89
2018-04-23T04:26:24.524Z,85.80
2018-04-23T04:27:51.432Z,85.39
2018-04-23T04:29:18.779Z,85.69
2018-04-23T04:30:46.353Z,85.66
2018-04-23T04:32:13.720Z,85.98
2018-04-23T04:33:41.057Z,85.79
2018-04-23T04:35:08.452Z,85.79
2018-04-23T04:36:35.770Z,86.10
2018-04-23T04:38:03.132Z,86.11
2018-04-23T04:39:30.619Z,85.77
2018-04-23T04:41:02.053Z,85.65
2018-04-23T04:42:25.660Z,85.69
2018-04-23T04:43:57.295Z,85.51
2018-04-23T04:45:20.434Z,85.50
2018-04-23T04:46:47.289Z,85.64
2018-04-23T04:48:14.665Z,85.67
2018-04-23T04:49:42.048Z,85.38
2018-04-23T04:51:09.224Z,85.72
2018-04-23T04:52:40.752Z,85.49
2018-04-23T04:54:08.243Z,85.70
2018-04-23T04:55:31.668Z,85.59
2018-04-23T04:56:59.184Z,85.26
2018-04-23T04:58:26.664Z,85.79
2018-04-23T04:59:58.006Z,85.93
2018-04-23T05:01:25.507Z,85.96
2018-04-23T05:02:52.831Z,86.01
2018-04-23T05:04:16.111Z,86.11
2018-04-23T05:05:43.479Z,86.02
2018-04-23T05:07:10.842Z,85.98
2018-04-23T05:08:37.960Z,85.80
2018-04-23T05:10:05.531Z,86.10
2018-04-23T05:11:37.076Z,85.72
2018-04-23T05:13:00.162Z,85.91
2018-04-23T05:14:31.779Z,85.83
2018-04-23T05:15:59.291Z,85.89
2018-04-23T05:17:22.614Z,85.98
2018-04-23T05:18:50.062Z,86.10
2018-04-23T05:20:21.260Z,85.78
2018-04-23T05:21:48.596Z,85.75
2018-04-23T05:23:11.987Z,85.79
2018-04-23T05:24:39.439Z,86.09
2018-04-23T05:26:06.699Z,86.01
2018-04-23T05:27:34.081Z,86.09
2018-04-23T05:29:00.767Z,86.40
2018-04-23T05:30:32.157Z,86.48
2018-04-23T05:31:59.664Z,86.44
2018-04-23T05:33:23.195Z,86.94
2018-04-23T05:34:50.472Z,86.80
2018-04-23T05:36:21.707Z,87.07
2018-04-23T05:37:48.891Z,86.92
2018-04-23T05:39:12.122Z,87.32
2018-04-23T05:40:39.387Z,87.28
2018-04-23T05:42:07.022Z,87.00
2018-04-23T05:43:38.264Z,87.26
2018-04-23T05:45:05.604Z,87.35
2018-04-23T05:46:29.062Z,86.91
2018-04-23T05:47:56.664Z,86.94
2018-04-23T05:49:27.762Z,87.13
2018-04-23T05:50:51.204Z,87.48
2018-04-23T05:52:18.563Z,86.96
2018-04-23T05:53:49.854Z,87.01
2018-04-23T05:55:16.970Z,86.70
2018-04-23T05:56:39.943Z,86.22
2018-04-23T05:58:11.351Z,86.43
2018-04-23T05:59:38.817Z,86.42
2018-04-23T06:01:01.776Z,86.07
2018-04-23T06:02:32.581Z,85.79
2018-04-23T06:04:00.021Z,86.05
2018-04-23T06:05:27.330Z,85.82
2018-04-23T06:06:54.820Z,85.92
2018-04-23T06:08:18.204Z,85.81
2018-04-23T06:09:45.332Z,85.71
2018-04-23T06:11:12.668Z,85.98
2018-04-23T06:12:40.084Z,85.74
2018-04-23T06:14:11.835Z,86.13
2018-04-23T06:15:35.236Z,86.10
2018-04-23T06:17:02.586Z,86.04
2018-04-23T06:18:33.734Z,85.91
2018-04-23T06:19:57.075Z,85.96
2018-04-23T06:21:24.335Z,85.23
2018-04-23T06:22:55.718Z,85.44
2018-04-23T06:24:19.099Z,85.09
2018-04-23T06:25:46.381Z,85.37
2018-04-23T06:27:17.624Z,85.33
2018-04-23T06:28:44.964Z,85.29
2018-04-23T06:30:12.390Z,85.26
2018-04-23T06:31:35.628Z,84.83
2018-04-23T06:33:03.111Z,85.05
2018-04-23T06:34:34.482Z,85.84
2018-04-23T06:36:02.858Z,84.73
2018-04-23T06:37:29.334Z,85.77
2018-04-23T06:38:56.541Z,85.64
2018-04-23T06:40:19.935Z,84.81
2018-04-23T06:41:51.218Z,84.03
2018-04-23T06:43:14.526Z,83.39
2018-04-23T06:44:41.725Z,83.30
2018-04-23T06:46:09.043Z,82.90
2018-04-23T06:47:36.411Z,83.43
2018-04-23T06:49:07.583Z,82.63
2018-04-23T06:50:31.224Z,82.06
2018-04-23T06:52:02.315Z,82.22
2018-04-23T06:53:29.584Z,81.63
2018-04-23T06:54:53.366Z,81.31
2018-04-23T06:56:24.580Z,82.21
2018-04-23T06:57:47.800Z,80.93
2018-04-23T06:59:19.089Z,81.18
2018-04-23T07:00:42.453Z,80.80
2018-04-23T07:02:13.661Z,81.52
2018-04-23T07:03:37.291Z,80.28
2018-04-23T07:05:04.511Z,79.39
2018-04-23T07:06:35.880Z,80.03
2018-04-23T07:07:59.454Z,79.69
2018-04-23T07:09:26.880Z,80.88
2018-04-23T07:10:54.256Z,81.01
2018-04-23T07:12:25.551Z,79.97
2018-04-23T07:13:52.753Z,80.03
2018-04-23T07:15:16.286Z,80.56
2018-04-23T07:16:47.450Z,79.84
2018-04-23T07:18:10.843Z,80.00
2018-04-23T07:19:38.249Z,80.20
2018-04-23T07:21:05.797Z,79.77
2018-04-23T07:22:33.321Z,80.20
2018-04-23T07:24:00.596Z,80.82
2018-04-23T07:25:32.046Z,78.14
2018-04-23T07:26:55.543Z,79.23
2018-04-23T07:28:26.667Z,78.13
2018-04-23T07:29:54.137Z,78.49
2018-04-23T07:31:21.665Z,77.69
2018-04-23T07:32:49.088Z,77.08
2018-04-23T07:34:16.450Z,76.89
2018-04-23T07:35:43.499Z,76.56
2018-04-23T07:37:06.704Z,75.91
2018-04-23T07:38:33.978Z,77.17
2018-04-23T07:40:01.448Z,75.73
2018-04-23T07:41:28.840Z,75.57
2018-04-23T07:42:56.345Z,75.70
2018-04-23T07:44:23.803Z,76.21
2018-04-23T07:45:51.388Z,76.67
2018-04-23T07:47:22.706Z,77.42
2018-04-23T07:48:46.095Z,75.87
2018-04-23T07:50:17.594Z,75.81
2018-04-23T07:51:40.882Z,75.60
2018-04-23T07:53:08.412Z,75.04
2018-04-23T07:54:35.463Z,75.16
2018-04-23T07:56:07.049Z,74.64
2018-04-23T07:57:30.385Z,74.22
2018-04-23T07:58:57.772Z,75.36
2018-04-23T08:00:25.342Z,75.25
2018-04-23T08:01:52.288Z,76.63
2018-04-23T08:03:19.510Z,75.01
2018-04-23T08:04:47.010Z,75.23
2018-04-23T08:06:14.439Z,75.47
2018-04-23T08:07:45.723Z,75.06
2018-04-23T08:09:09.195Z,74.90
2018-04-23T08:10:36.521Z,75.70
2018-04-23T08:12:04.205Z,75.74
2018-04-23T08:13:31.120Z,75.73
2018-04-23T08:14:57.943Z,76.36
2018-04-23T08:16:25.542Z,76.33
2018-04-23T08:17:53.000Z,76.10
2018-04-23T08:19:20.330Z,75.93
2018-04-23T08:20:51.840Z,75.09
2018-04-23T08:22:19.160Z,75.42
2018-04-23T08:23:42.334Z,75.92
2018-04-23T08:25:09.931Z,76.43
2018-04-23T08:26:41.386Z,74.93
2018-04-23T08:28:08.560Z,75.36
2018-04-23T08:29:35.956Z,75.78
2018-04-23T08:31:03.228Z,76.63
2018-04-23T08:32:30.661Z,76.08
2018-04-23T08:33:54.185Z,75.99
2018-04-23T08:35:25.855Z,75.94
2018-04-23T08:36:49.174Z,75.95
2018-04-23T08:38:16.392Z,76.17
2018-04-23T08:39:47.894Z,76.47
2018-04-23T08:41:11.093Z,77.47
2018-04-23T08:42:42.213Z,76.83
2018-04-23T08:44:05.795Z,77.92
2018-04-23T08:45:33.065Z,76.75
2018-04-23T08:47:00.415Z,76.59
2018-04-23T08:48:27.533Z,75.95
2018-04-23T08:49:54.997Z,75.61
2018-04-23T08:51:26.618Z,73.85
2018-04-23T08:52:50.154Z,74.33
2018-04-23T08:54:17.347Z,74.53
2018-04-23T08:55:44.870Z,73.56
2018-04-23T08:57:12.173Z,73.28
2018-04-23T08:58:39.833Z,73.43
2018-04-23T09:00:06.796Z,73.35
2018-04-23T09:01:34.131Z,73.54
2018-04-23T09:03:01.616Z,73.55
2018-04-23T09:04:28.948Z,73.75
2018-04-23T09:06:00.035Z,73.86
2018-04-23T09:07:23.652Z,73.64
2018-04-23T09:08:50.929Z,73.06
2018-04-23T09:10:18.320Z,73.09
2018-04-23T09:11:45.768Z,72.72
2018-04-23T09:13:13.367Z,72.21
2018-04-23T09:14:44.608Z,73.00
2018-04-23T09:16:07.803Z,73.02
2018-04-23T09:17:34.847Z,72.94
2018-04-23T09:19:06.479Z,71.88
2018-04-23T09:20:29.247Z,72.73
2018-04-23T09:22:00.211Z,72.41
2018-04-23T09:23:27.542Z,72.50
2018-04-23T09:24:54.613Z,73.74
2018-04-23T09:26:17.897Z,71.30
2018-04-23T09:27:44.690Z,70.34
2018-04-23T09:29:11.988Z,70.55
2018-04-23T09:30:43.092Z,70.90
2018-04-23T09:32:06.655Z,71.84
2018-04-23T09:33:37.965Z,70.47
2018-04-23T09:35:05.354Z,70.15
2018-04-23T09:36:32.990Z,70.97
2018-04-23T09:38:00.103Z,69.92
2018-04-23T09:39:27.367Z,70.96
2018-04-23T09:40:50.658Z,71.92
2018-04-23T09:42:18.058Z,70.43
2018-04-23T09:43:45.400Z,69.40
2018-04-23T09:45:12.793Z,69.76
2018-04-23T09:46:44.149Z,69.58
2018-04-23T09:48:07.060Z,71.70
2018-04-23T09:49:38.635Z,71.69
2018-04-23T09:51:01.688Z,71.74
2018-04-23T09:52:29.142Z,72.49
2018-04-23T09:53:59.994Z,72.28
2018-04-23T09:55:23.594Z,71.51
2018-04-23T09:56:54.825Z,72.08
2018-04-23T09:58:18.269Z,72.58
2018-04-23T09:59:45.726Z,71.39
2018-04-23T10:01:17.266Z,71.87
2018-04-23T10:02:40.454Z,71.09
2018-04-23T10:04:07.958Z,71.78
2018-04-23T10:05:35.076Z,71.91
2018-04-23T10:07:02.677Z,72.04
2018-04-23T10:08:30.058Z,72.61
2018-04-23T10:09:57.160Z,71.49
2018-04-23T10:11:28.503Z,70.56
2018-04-23T10:12:52.055Z,70.85
2018-04-23T10:14:19.592Z,72.06
2018-04-23T10:15:51.069Z,72.17
2018-04-23T10:17:14.395Z,72.47
2018-04-23T10:18:41.713Z,72.61
2018-04-23T10:20:08.806Z,71.22
2018-04-23T10:21:40.490Z,69.84
2018-04-23T10:23:03.969Z,69.57
2018-04-23T10:24:31.163Z,69.41
2018-04-23T10:25:58.148Z,70.17
2018-04-23T10:27:24.958Z,71.82
2018-04-23T10:28:56.511Z,72.53
2018-04-23T10:30:20.048Z,70.88
2018-04-23T10:31:47.493Z,70.55
2018-04-23T10:33:15.145Z,69.55
2018-04-23T10:34:42.372Z,69.49
2018-04-23T10:36:14.038Z,68.38
2018-04-23T10:37:37.445Z,69.43
2018-04-23T10:39:08.870Z,70.46
2018-04-23T10:40:32.389Z,71.77
2018-04-23T10:42:03.809Z,72.15
2018-04-23T10:43:27.218Z,70.87
2018-04-23T10:44:54.677Z,69.52
2018-04-23T10:46:22.055Z,69.08
2018-04-23T10:47:49.449Z,68.96
2018-04-23T10:49:20.424Z,70.61
2018-04-23T10:50:47.863Z,69.87
2018-04-23T10:52:10.911Z,69.44
2018-04-23T10:53:42.263Z,69.05
2018-04-23T10:55:09.770Z,68.38
2018-04-23T10:56:33.133Z,69.94
2018-04-23T10:58:00.665Z,68.92
2018-04-23T10:59:28.129Z,68.57
2018-04-23T11:00:59.484Z,68.30
2018-04-23T11:02:22.867Z,69.30
2018-04-23T11:03:50.261Z,70.49
2018-04-23T11:05:21.667Z,68.13
2018-04-23T11:06:45.036Z,66.69
2018-04-23T11:08:12.527Z,65.79
2018-04-23T11:09:39.932Z,64.84
2018-04-23T11:11:07.309Z,65.18
2018-04-23T11:12:34.735Z,65.73
2018-04-23T11:14:02.271Z,66.30
2018-04-23T11:15:29.672Z,65.35
2018-04-23T11:16:56.887Z,65.37
2018-04-23T11:19:55.934Z,68.88
2018-04-23T11:21:22.971Z,67.48
2018-04-23T11:22:46.395Z,65.94
2018-04-23T11:24:13.818Z,64.44
2018-04-23T11:25:40.671Z,64.59
2018-04-23T11:27:08.066Z,65.32
2018-04-23T11:28:35.716Z,65.74
2018-04-23T11:30:03.230Z,65.05
2018-04-23T11:31:30.799Z,62.51
2018-04-23T11:32:58.256Z,62.39
2018-04-23T11:34:25.746Z,62.45
2018-04-23T11:35:53.169Z,62.83
2018-04-23T11:37:24.661Z,64.23
2018-04-23T11:38:47.824Z,65.22
2018-04-23T11:40:15.399Z,64.48
2018-04-23T11:41:42.651Z,64.63
2018-04-23T11:43:10.024Z,62.88
2018-04-23T11:44:37.617Z,63.45
2018-04-23T11:46:05.109Z,63.32
2018-04-23T11:47:32.568Z,63.24
2018-04-23T11:49:00.074Z,61.60
2018-04-23T11:50:27.340Z,62.46
2018-04-23T11:51:58.769Z,62.81
2018-04-23T11:53:22.204Z,61.94
2018-04-23T11:54:53.752Z,61.88
2018-04-23T11:56:17.152Z,62.13
2018-04-23T11:57:48.606Z,60.87
2018-04-23T11:59:11.673Z,59.12
2018-04-23T12:00:39.223Z,60.54
2018-04-23T12:02:13.809Z,61.90
2018-04-23T12:03:38.367Z,63.02
2018-04-23T12:05:01.879Z,60.88
2018-04-23T12:06:33.528Z,58.88
2018-04-23T12:07:57.138Z,57.83
2018-04-23T12:09:24.729Z,57.15
2018-04-23T12:10:51.827Z,57.16
2018-04-23T12:12:19.193Z,56.01
2018-04-23T12:13:46.586Z,56.90
2018-04-23T12:15:18.009Z,58.25
2018-04-23T12:16:41.244Z,57.93
2018-04-23T12:18:08.682Z,57.85
2018-04-23T12:19:40.369Z,56.94
2018-04-23T12:21:07.507Z,57.13
2018-04-23T12:22:34.989Z,56.63
2018-04-23T12:23:58.528Z,56.71
2018-04-23T12:25:25.883Z,56.56
2018-04-23T12:26:53.200Z,57.88
2018-04-23T12:28:20.248Z,57.23
2018-04-23T12:29:47.879Z,57.66
2018-04-23T12:31:19.284Z,58.26
2018-04-23T12:32:42.356Z,56.90
2018-04-23T12:34:13.697Z,55.97
2018-04-23T12:35:37.207Z,56.15
2018-04-23T12:37:04.836Z,54.87
2018-04-23T12:38:32.449Z,56.41
2018-04-23T12:40:03.720Z,55.73
2018-04-23T12:41:27.353Z,56.00
2018-04-23T12:42:54.512Z,56.19
2018-04-23T12:44:25.750Z,55.76
2018-04-23T12:45:49.200Z,56.20
2018-04-23T12:47:20.481Z,56.65
2018-04-23T12:48:48.053Z,55.64
2018-04-23T12:50:11.440Z,57.39
2018-04-23T12:51:39.117Z,58.87
2018-04-23T12:53:10.561Z,58.34
2018-04-23T12:54:33.989Z,58.19
2018-04-23T12:56:01.548Z,58.84
2018-04-23T12:57:28.991Z,58.40
2018-04-23T12:58:56.494Z,58.19
2018-04-23T13:00:23.879Z,58.65
2018-04-23T13:01:55.097Z,58.81
2018-04-23T13:03:18.539Z,60.81
2018-04-23T13:04:50.064Z,59.11
2018-04-23T13:06:13.303Z,59.34
2018-04-23T13:07:40.698Z,59.05
2018-04-23T13:09:08.093Z,58.50
2018-04-23T13:10:35.514Z,57.23
2018-04-23T13:12:03.079Z,57.42
2018-04-23T13:13:30.310Z,56.73
2018-04-23T13:14:57.711Z,58.46
2018-04-23T13:16:25.003Z,58.83
2018-04-23T13:17:56.014Z,56.55
2018-04-23T13:19:19.271Z,57.77
2018-04-23T13:20:46.791Z,57.89
2018-04-23T13:22:14.273Z,57.35
2018-04-23T13:23:45.434Z,57.89
2018-04-23T13:25:13.012Z,58.67
2018-04-23T13:26:36.489Z,59.27
2018-04-23T13:28:04.040Z,58.25
2018-04-23T13:29:35.592Z,58.05
2018-04-23T13:30:59.146Z,58.47
2018-04-23T13:32:26.693Z,58.62
2018-04-23T13:33:54.098Z,59.40
2018-04-23T13:35:25.613Z,59.08
2018-04-23T13:36:49.123Z,59.10
2018-04-23T13:38:16.521Z,58.40
2018-04-23T13:39:43.782Z,58.23
2018-04-23T13:41:15.268Z,58.12
2018-04-23T13:42:38.626Z,58.01
2018-04-23T13:44:06.237Z,58.73
2018-04-23T13:45:33.677Z,61.04
2018-04-23T13:47:01.221Z,60.35
2018-04-23T13:48:32.567Z,57.88
2018-04-23T13:49:56.242Z,58.72
2018-04-23T13:51:23.623Z,58.19
2018-04-23T13:52:51.226Z,58.63
2018-04-23T13:54:22.666Z,58.29
2018-04-23T13:55:46.156Z,58.81
2018-04-23T13:57:13.528Z,59.16
2018-04-23T13:58:45.088Z,59.54
2018-04-23T14:00:12.686Z,57.38
2018-04-23T14:01:40.231Z,58.23
2018-04-23T14:03:07.656Z,58.77
2018-04-23T14:04:30.979Z,57.61
2018-04-23T14:06:02.489Z,58.46
2018-04-23T14:07:29.880Z,59.00
2018-04-23T14:08:53.093Z,56.60
2018-04-23T14:10:24.371Z,55.53
2018-04-23T14:11:47.729Z,56.12
2018-04-23T14:13:15.088Z,56.73
2018-04-23T14:14:46.475Z,55.91
2018-04-23T14:16:10.028Z,55.47
2018-04-23T14:17:37.425Z,56.03
2018-04-23T14:19:09.054Z,55.88
2018-04-23T14:20:32.352Z,55.24
2018-04-23T14:21:59.887Z,55.47
2018-04-23T14:23:31.314Z,53.22
2018-04-23T14:24:54.673Z,56.01
2018-04-23T14:26:26.195Z,52.90
2018-04-23T14:27:53.546Z,52.37
2018-04-23T14:29:20.881Z,53.85
2018-04-23T14:30:44.168Z,53.68
2018-04-23T14:32:11.567Z,55.05
2018-04-23T14:33:43.133Z,55.12
2018-04-23T14:35:06.430Z,54.36
2018-04-23T14:36:37.842Z,55.63
2018-04-23T14:38:01.397Z,54.82
2018-04-23T14:39:32.719Z,54.26
2018-04-23T14:40:55.971Z,54.96
2018-04-23T14:42:27.380Z,55.41
2018-04-23T14:43:54.878Z,56.51
2018-04-23T14:45:22.272Z,55.58
2018-04-23T14:46:45.659Z,56.62
2018-04-23T14:48:13.205Z,55.19
2018-04-23T14:49:40.595Z,56.08
2018-04-23T14:51:11.935Z,55.83
2018-04-23T14:52:39.260Z,56.60
2018-04-23T14:54:06.744Z,54.53
2018-04-23T14:55:30.344Z,55.97
2018-04-23T14:56:57.640Z,56.76
2018-04-23T14:58:25.016Z,55.70
2018-04-23T14:59:52.562Z,56.21
2018-04-23T15:01:19.872Z,55.90
2018-04-23T15:02:47.259Z,55.87
2018-04-23T15:04:14.566Z,55.00
2018-04-23T15:05:41.804Z,54.80
2018-04-23T15:07:09.296Z,54.52
2018-04-23T15:08:40.804Z,55.86
2018-04-23T15:10:03.955Z,56.18
2018-04-23T15:11:35.409Z,56.06
2018-04-23T15:12:58.828Z,55.20
2018-04-23T15:14:30.385Z,54.53
2018-04-23T15:15:53.721Z,54.74
2018-04-23T15:17:25.106Z,53.77
2018-04-23T15:18:52.408Z,54.75
2018-04-23T15:20:15.857Z,53.59
2018-04-23T15:21:43.057Z,54.14
2018-04-23T15:23:10.388Z,55.27
2018-04-23T15:24:37.899Z,54.09
2018-04-23T15:26:04.980Z,53.20
2018-04-23T15:27:36.515Z,53.86
2018-04-23T15:29:00.054Z,53.81
2018-04-23T15:30:31.671Z,52.38
2018-04-23T15:31:59.253Z,52.76
2018-04-23T15:33:26.832Z,53.07
2018-04-23T15:34:50.029Z,53.98
2018-04-23T15:36:21.497Z,52.56
2018-04-23T15:37:45.072Z,52.13
2018-04-23T15:39:12.354Z,52.48
2018-04-23T15:40:39.922Z,52.04
2018-04-23T15:42:11.183Z,52.08
2018-04-23T15:43:38.555Z,52.58
2018-04-23T15:45:02.075Z,52.96
2018-04-23T15:46:29.427Z,53.95
2018-04-23T15:47:57.031Z,55.08
2018-04-23T15:49:28.518Z,52.63
2018-04-23T15:50:55.946Z,52.27
2018-04-23T15:52:19.476Z,53.93
2018-04-23T15:53:50.865Z,53.70
2018-04-23T15:55:18.290Z,52.94
2018-04-23T15:56:41.673Z,53.38
2018-04-23T15:58:13.065Z,53.56
2018-04-23T15:59:36.589Z,53.02
2018-04-23T16:01:03.987Z,54.47
2018-04-23T16:02:31.491Z,53.99
2018-04-23T16:04:02.934Z,53.83
2018-04-23T16:05:30.498Z,53.62
2018-04-23T16:06:57.771Z,53.38
2018-04-23T16:08:25.284Z,52.94
2018-04-23T16:09:48.774Z,53.16
2018-04-23T16:11:16.288Z,53.87
2018-04-23T16:12:43.600Z,53.29
2018-04-23T16:14:11.061Z,53.70
2018-04-23T16:15:38.470Z,53.86
2018-04-23T16:17:05.757Z,53.35
2018-04-23T16:18:33.271Z,53.93
2018-04-23T16:20:00.578Z,53.45
2018-04-23T16:21:28.147Z,53.91
2018-04-23T16:22:55.330Z,54.47
2018-04-23T16:24:22.799Z,54.40
2018-04-23T16:25:50.321Z,53.81
2018-04-23T16:27:17.572Z,53.88
2018-04-23T16:28:44.914Z,53.79
2018-04-23T16:30:16.457Z,53.57
2018-04-23T16:31:40.181Z,53.63
2018-04-23T16:33:07.337Z,53.52
2018-04-23T16:34:34.943Z,53.25
2018-04-23T16:36:01.922Z,53.30
2018-04-23T16:37:29.229Z,53.80
2018-04-23T16:38:56.653Z,54.10
2018-04-23T16:40:24.294Z,54.13
2018-04-23T16:41:55.769Z,54.14
2018-04-23T16:43:19.190Z,53.41
2018-04-23T16:44:50.542Z,54.09
2018-04-23T16:46:14.102Z,53.49
2018-04-23T16:47:41.170Z,53.57
2018-04-23T16:49:08.629Z,53.84
2018-04-23T16:50:35.928Z,53.60
2018-04-23T16:52:03.315Z,53.81
2018-04-23T16:53:30.640Z,53.34
2018-04-23T16:55:02.126Z,54.39
2018-04-23T16:56:25.545Z,54.24
2018-04-23T16:57:52.926Z,53.99
2018-04-23T16:59:20.215Z,53.80
2018-04-23T17:00:51.552Z,54.51
2018-04-23T17:02:18.946Z,53.82
2018-04-23T17:03:46.304Z,53.79
2018-04-23T17:05:09.316Z,54.41
2018-04-23T17:06:36.726Z,54.95
2018-04-23T17:08:04.245Z,55.37
2018-04-23T17:09:35.735Z,54.58
2018-04-23T17:11:02.831Z,54.03
2018-04-23T17:12:26.421Z,54.04
2018-04-23T17:13:53.871Z,54.60
2018-04-23T17:15:24.532Z,53.92
2018-04-23T17:16:48.102Z,53.56
2018-04-23T17:18:15.324Z,54.00
2018-04-23T17:19:42.787Z,54.72
2018-04-23T17:21:09.859Z,54.37
2018-04-23T17:22:37.024Z,53.79
2018-04-23T17:24:04.354Z,53.45
2018-04-23T17:25:31.665Z,54.18
2018-04-23T17:26:58.738Z,53.72
2018-04-23T17:28:26.274Z,54.51
2018-04-23T17:29:53.612Z,54.69
2018-04-23T17:31:21.093Z,54.45
2018-04-23T17:32:48.468Z,54.54
2018-04-23T17:34:15.931Z,54.64
2018-04-23T17:35:43.216Z,54.77
2018-04-23T17:37:10.356Z,54.67
2018-04-23T17:38:41.355Z,54.70
2018-04-23T17:40:04.844Z,54.87
2018-04-23T17:41:31.927Z,55.02
2018-04-23T17:42:59.291Z,55.00
2018-04-23T17:44:30.782Z,55.26
2018-04-23T17:45:57.965Z,55.79
2018-04-23T17:47:21.140Z,55.29
2018-04-23T17:48:48.413Z,56.02
2018-04-23T17:50:15.819Z,56.49
2018-04-23T17:51:46.787Z,56.20
2018-04-23T17:53:09.969Z,56.25
2018-04-23T17:54:37.379Z,55.51
2018-04-23T17:56:04.796Z,55.88
2018-04-23T17:57:40.487Z,56.50
2018-04-23T17:59:03.103Z,56.10
2018-04-23T18:00:30.628Z,56.42
2018-04-23T18:01:53.593Z,56.20
2018-04-23T18:03:20.964Z,56.58
2018-04-23T18:04:52.165Z,56.76
2018-04-23T18:06:15.693Z,57.09
2018-04-23T18:07:47.062Z,57.54
2018-04-23T18:09:10.211Z,57.54
2018-04-23T18:10:37.422Z,57.32
2018-04-23T18:12:08.820Z,57.10
2018-04-23T18:13:36.178Z,57.59
2018-04-23T18:15:03.386Z,57.61
2018-04-23T18:16:26.904Z,57.37
2018-04-23T18:17:54.243Z,57.26
2018-04-23T18:19:25.534Z,57.59
2018-04-23T18:20:48.842Z,58.23
2018-04-23T18:22:16.165Z,58.23
2018-04-23T18:23:47.361Z,57.69
2018-04-23T18:25:10.662Z,57.73
2018-04-23T18:26:42.057Z,57.73
2018-04-23T18:28:09.510Z,57.60
2018-04-23T18:29:36.992Z,57.89
2018-04-23T18:31:00.364Z,57.68
2018-04-23T18:32:27.996Z,57.80
2018-04-23T18:33:55.282Z,57.75
2018-04-23T18:35:22.618Z,57.42
2018-04-23T18:36:53.990Z,57.78
2018-04-23T18:38:17.141Z,57.62
2018-04-23T18:39:44.521Z,58.14
2018-04-23T18:41:11.902Z,57.65
2018-04-23T18:42:39.350Z,57.72
2018-04-23T18:44:10.889Z,57.68
2018-04-23T18:45:38.289Z,58.46
2018-04-23T18:47:01.732Z,58.26